sensor_id;sensor_type;location;lat;lon;timestamp;pressure;altitude;pressure_sealevel;temperature;humidity
79625;BME280;69101;45.534;10.218;2023-04-15T00:00:13;98689.13;;;20.01;33.28
79625;BME280;69101;45.534;10.218;2023-04-15T00:02:40;98689.13;;;20.01;33.29
79625;BME280;69101;45.534;10.218;2023-04-15T00:05:05;98692.34;;;20.03;33.35
79625;BME280;69101;45.534;10.218;2023-04-15T00:07:31;98687.31;;;20.02;33.29
79625;BME280;69101;45.534;10.218;2023-04-15T00:09:57;98683.84;;;20.01;33.19
79625;BME280;69101;45.534;10.218;2023-04-15T00:12:23;98679.63;;;20.00;33.45
79625;BME280;69101;45.534;10.218;2023-04-15T00:14:49;98676.16;;;19.99;33.36
79625;BME280;69101;45.534;10.218;2023-04-15T00:17:15;98680.25;;;19.95;33.39
79625;BME280;69101;45.534;10.218;2023-04-15T00:19:41;98674.78;;;19.97;33.60
79625;BME280;69101;45.534;10.218;2023-04-15T00:22:06;98683.72;;;19.96;33.46
79625;BME280;69101;45.534;10.218;2023-04-15T00:24:32;98674.97;;;19.95;33.61
79625;BME280;69101;45.534;10.218;2023-04-15T00:26:58;98667.88;;;19.96;33.60
79625;BME280;69101;45.534;10.218;2023-04-15T00:29:24;98669.69;;;19.95;33.61
79625;BME280;69101;45.534;10.218;2023-04-15T00:31:49;98669.94;;;19.94;33.17
79625;BME280;69101;45.534;10.218;2023-04-15T00:34:15;98665.66;;;19.93;33.19
79625;BME280;69101;45.534;10.218;2023-04-15T00:36:40;98673.00;;;19.91;33.47
79625;BME280;69101;45.534;10.218;2023-04-15T00:39:06;98666.13;;;19.90;33.48
79625;BME280;69101;45.534;10.218;2023-04-15T00:41:31;98665.09;;;19.91;33.60
79625;BME280;69101;45.534;10.218;2023-04-15T00:43:58;98657.59;;;19.88;33.31
79625;BME280;69101;45.534;10.218;2023-04-15T00:46:26;98652.31;;;19.88;33.10
79625;BME280;69101;45.534;10.218;2023-04-15T00:48:53;98651.31;;;19.89;33.30
79625;BME280;69101;45.534;10.218;2023-04-15T00:51:19;98652.13;;;19.89;33.69
79625;BME280;69101;45.534;10.218;2023-04-15T00:53:44;98642.81;;;19.87;33.56
79625;BME280;69101;45.534;10.218;2023-04-15T00:56:10;98653.38;;;19.87;33.41
79625;BME280;69101;45.534;10.218;2023-04-15T00:58:35;98645.91;;;19.84;33.36
79625;BME280;69101;45.534;10.218;2023-04-15T01:01:01;98654.63;;;19.84;33.22
79625;BME280;69101;45.534;10.218;2023-04-15T01:03:28;98646.47;;;19.86;33.52
79625;BME280;69101;45.534;10.218;2023-04-15T01:05:54;98648.53;;;19.84;33.39
79625;BME280;69101;45.534;10.218;2023-04-15T01:08:27;98650.16;;;19.85;33.36
79625;BME280;69101;45.534;10.218;2023-04-15T01:10:54;98648.97;;;19.81;33.31
79625;BME280;69101;45.534;10.218;2023-04-15T01:13:22;98651.59;;;19.81;33.32
79625;BME280;69101;45.534;10.218;2023-04-15T01:15:48;98647.94;;;19.82;33.37
79625;BME280;69101;45.534;10.218;2023-04-15T01:18:13;98649.19;;;19.79;33.21
79625;BME280;69101;45.534;10.218;2023-04-15T01:20:39;98646.75;;;19.78;32.97
79625;BME280;69101;45.534;10.218;2023-04-15T01:23:05;98645.38;;;19.75;33.27
79625;BME280;69101;45.534;10.218;2023-04-15T01:25:31;98651.47;;;19.76;33.38
79625;BME280;69101;45.534;10.218;2023-04-15T01:27:57;98656.72;;;19.76;33.28
79625;BME280;69101;45.534;10.218;2023-04-15T01:30:23;98649.06;;;19.74;33.32
79625;BME280;69101;45.534;10.218;2023-04-15T01:32:50;98642.97;;;19.74;33.36
79625;BME280;69101;45.534;10.218;2023-04-15T01:35:16;98651.09;;;19.72;33.31
79625;BME280;69101;45.534;10.218;2023-04-15T01:37:41;98642.16;;;19.73;33.29
79625;BME280;69101;45.534;10.218;2023-04-15T01:40:07;98646.63;;;19.73;33.26
79625;BME280;69101;45.534;10.218;2023-04-15T01:42:34;98646.03;;;19.71;33.28
79625;BME280;69101;45.534;10.218;2023-04-15T01:45:00;98652.31;;;19.70;33.30
79625;BME280;69101;45.534;10.218;2023-04-15T01:47:26;98648.91;;;19.69;33.31
79625;BME280;69101;45.534;10.218;2023-04-15T01:49:52;98657.59;;;19.70;33.46
79625;BME280;69101;45.534;10.218;2023-04-15T01:52:17;98652.31;;;19.70;33.57
79625;BME280;69101;45.534;10.218;2023-04-15T01:54:42;98659.66;;;19.68;33.32
79625;BME280;69101;45.534;10.218;2023-04-15T01:57:08;98654.38;;;19.68;33.18
79625;BME280;69101;45.534;10.218;2023-04-15T01:59:34;98662.53;;;19.66;33.52
79625;BME280;69101;45.534;10.218;2023-04-15T02:01:59;98663.09;;;19.68;33.29
79625;BME280;69101;45.534;10.218;2023-04-15T02:04:25;98669.63;;;19.66;33.80
79625;BME280;69101;45.534;10.218;2023-04-15T02:06:52;98671.25;;;19.67;33.46
79625;BME280;69101;45.534;10.218;2023-04-15T02:09:17;98674.09;;;19.65;33.67
79625;BME280;69101;45.534;10.218;2023-04-15T02:11:42;98672.28;;;19.66;33.58
79625;BME280;69101;45.534;10.218;2023-04-15T02:14:08;98674.09;;;19.65;33.64
79625;BME280;69101;45.534;10.218;2023-04-15T02:16:33;98675.34;;;19.63;33.60
79625;BME280;69101;45.534;10.218;2023-04-15T02:18:59;98665.59;;;19.63;33.93
79625;BME280;69101;45.534;10.218;2023-04-15T02:21:28;98673.50;;;19.63;33.85
79625;BME280;69101;45.534;10.218;2023-04-15T02:23:54;98672.69;;;19.63;33.94
79625;BME280;69101;45.534;10.218;2023-04-15T02:26:20;98675.56;;;19.61;33.74
79625;BME280;69101;45.534;10.218;2023-04-15T02:28:47;98673.94;;;19.60;33.70
79625;BME280;69101;45.534;10.218;2023-04-15T02:31:13;98673.50;;;19.63;34.04
79625;BME280;69101;45.534;10.218;2023-04-15T02:33:38;98670.06;;;19.63;33.87
79625;BME280;69101;45.534;10.218;2023-04-15T02:36:04;98665.22;;;19.60;33.82
79625;BME280;69101;45.534;10.218;2023-04-15T02:38:30;98665.84;;;19.62;33.52
79625;BME280;69101;45.534;10.218;2023-04-15T02:40:56;98663.38;;;19.60;33.49
79625;BME280;69101;45.534;10.218;2023-04-15T02:43:22;98670.28;;;19.61;33.79
79625;BME280;69101;45.534;10.218;2023-04-15T02:45:47;98668.91;;;19.59;33.83
79625;BME280;69101;45.534;10.218;2023-04-15T02:48:13;98667.84;;;19.60;33.72
79625;BME280;69101;45.534;10.218;2023-04-15T02:50:38;98678.63;;;19.58;33.58
79625;BME280;69101;45.534;10.218;2023-04-15T02:53:05;98670.50;;;19.60;33.75
79625;BME280;69101;45.534;10.218;2023-04-15T02:55:30;98678.22;;;19.61;33.80
79625;BME280;69101;45.534;10.218;2023-04-15T02:57:56;98680.03;;;19.61;33.66
79625;BME280;69101;45.534;10.218;2023-04-15T03:00:24;98674.16;;;19.59;33.90
79625;BME280;69101;45.534;10.218;2023-04-15T03:02:50;98674.16;;;19.59;33.95
79625;BME280;69101;45.534;10.218;2023-04-15T03:05:21;98681.03;;;19.60;33.86
79625;BME280;69101;45.534;10.218;2023-04-15T03:07:49;98684.72;;;19.59;33.77
79625;BME280;69101;45.534;10.218;2023-04-15T03:10:15;98688.38;;;19.58;33.76
79625;BME280;69101;45.534;10.218;2023-04-15T03:12:40;98688.38;;;19.58;33.83
79625;BME280;69101;45.534;10.218;2023-04-15T03:15:06;98690.81;;;19.59;33.79
79625;BME280;69101;45.534;10.218;2023-04-15T03:17:32;98692.06;;;19.57;33.95
79625;BME280;69101;45.534;10.218;2023-04-15T03:19:57;98689.41;;;19.57;33.94
79625;BME280;69101;45.534;10.218;2023-04-15T03:22:23;98691.25;;;19.56;34.29
79625;BME280;69101;45.534;10.218;2023-04-15T03:24:49;98693.06;;;19.56;34.05
79625;BME280;69101;45.534;10.218;2023-04-15T03:27:14;98699.34;;;19.55;34.27
79625;BME280;69101;45.534;10.218;2023-04-15T03:29:40;98708.31;;;19.54;34.39
79625;BME280;69101;45.534;10.218;2023-04-15T03:32:05;98705.06;;;19.52;34.16
79625;BME280;69101;45.534;10.218;2023-04-15T03:34:30;98708.50;;;19.52;34.14
79625;BME280;69101;45.534;10.218;2023-04-15T03:36:56;98707.69;;;19.52;34.44
79625;BME280;69101;45.534;10.218;2023-04-15T03:39:22;98712.19;;;19.51;34.20
79625;BME280;69101;45.534;10.218;2023-04-15T03:41:47;98707.09;;;19.50;34.43
79625;BME280;69101;45.534;10.218;2023-04-15T03:44:12;98710.56;;;19.50;34.53
79625;BME280;69101;45.534;10.218;2023-04-15T03:46:38;98712.38;;;19.50;34.55
79625;BME280;69101;45.534;10.218;2023-04-15T03:49:05;98719.28;;;19.51;34.70
79625;BME280;69101;45.534;10.218;2023-04-15T03:51:31;98714.00;;;19.51;34.39
79625;BME280;69101;45.534;10.218;2023-04-15T03:53:56;98722.13;;;19.49;34.45
79625;BME280;69101;45.534;10.218;2023-04-15T03:56:23;98722.56;;;19.46;34.35
79625;BME280;69101;45.534;10.218;2023-04-15T03:58:48;98719.13;;;19.46;34.43
79625;BME280;69101;45.534;10.218;2023-04-15T04:01:13;98720.94;;;19.45;34.40
79625;BME280;69101;45.534;10.218;2023-04-15T04:03:39;98715.69;;;19.45;34.47
79625;BME280;69101;45.534;10.218;2023-04-15T04:06:04;98725.41;;;19.45;34.40
79625;BME280;69101;45.534;10.218;2023-04-15T04:08:30;98730.09;;;19.43;34.62
79625;BME280;69101;45.534;10.218;2023-04-15T04:10:55;98730.09;;;19.43;34.76
79625;BME280;69101;45.534;10.218;2023-04-15T04:13:21;98729.50;;;19.41;34.61
79625;BME280;69101;45.534;10.218;2023-04-15T04:15:46;98734.78;;;19.41;34.63
79625;BME280;69101;45.534;10.218;2023-04-15T04:18:11;98742.69;;;19.41;34.34
79625;BME280;69101;45.534;10.218;2023-04-15T04:20:37;98745.53;;;19.39;34.36
79625;BME280;69101;45.534;10.218;2023-04-15T04:23:02;98751.84;;;19.38;34.02
79625;BME280;69101;45.534;10.218;2023-04-15T04:25:27;98750.41;;;19.35;33.94
79625;BME280;69101;45.534;10.218;2023-04-15T04:27:53;98748.41;;;19.38;34.28
79625;BME280;69101;45.534;10.218;2023-04-15T04:30:18;98746.94;;;19.42;34.16
79625;BME280;69101;45.534;10.218;2023-04-15T04:32:44;98747.75;;;19.42;34.00
79625;BME280;69101;45.534;10.218;2023-04-15T04:35:09;98758.53;;;19.41;33.86
79625;BME280;69101;45.534;10.218;2023-04-15T04:37:35;98751.19;;;19.43;33.89
79625;BME280;69101;45.534;10.218;2023-04-15T04:40:01;98744.53;;;19.40;34.02
79625;BME280;69101;45.534;10.218;2023-04-15T04:42:26;98755.88;;;19.41;33.56
79625;BME280;69101;45.534;10.218;2023-04-15T04:44:51;98750.19;;;19.44;34.15
79625;BME280;69101;45.534;10.218;2023-04-15T04:47:17;98753.84;;;19.43;33.43
79625;BME280;69101;45.534;10.218;2023-04-15T04:49:42;98756.69;;;19.41;33.23
79625;BME280;69101;45.534;10.218;2023-04-15T04:52:07;98759.34;;;19.41;33.83
79625;BME280;69101;45.534;10.218;2023-04-15T04:54:33;98760.56;;;19.39;33.38
79625;BME280;69101;45.534;10.218;2023-04-15T04:56:58;98763.78;;;19.41;33.71
79625;BME280;69101;45.534;10.218;2023-04-15T04:59:24;98766.44;;;19.41;33.56
79625;BME280;69101;45.534;10.218;2023-04-15T05:01:49;98767.66;;;19.38;33.75
79625;BME280;69101;45.534;10.218;2023-04-15T05:04:15;98766.44;;;19.41;33.76
79625;BME280;69101;45.534;10.218;2023-04-15T05:06:40;98770.06;;;19.40;34.05
79625;BME280;69101;45.534;10.218;2023-04-15T05:09:06;98770.47;;;19.36;33.57
79625;BME280;69101;45.534;10.218;2023-04-15T05:11:32;98772.13;;;19.38;33.60
79625;BME280;69101;45.534;10.218;2023-04-15T05:13:57;98780.22;;;19.36;34.15
79625;BME280;69101;45.534;10.218;2023-04-15T05:16:23;98776.78;;;19.35;34.07
79625;BME280;69101;45.534;10.218;2023-04-15T05:18:50;98783.06;;;19.34;33.64
79625;BME280;69101;45.534;10.218;2023-04-15T05:21:15;98785.91;;;19.40;33.92
79625;BME280;69101;45.534;10.218;2023-04-15T05:23:41;98786.28;;;19.43;33.96
79625;BME280;69101;45.534;10.218;2023-04-15T05:26:06;98787.69;;;19.46;33.80
79625;BME280;69101;45.534;10.218;2023-04-15T05:28:32;98783.00;;;19.48;33.95
79625;BME280;69101;45.534;10.218;2023-04-15T05:30:57;98783.38;;;19.51;33.78
79625;BME280;69101;45.534;10.218;2023-04-15T05:33:22;98782.16;;;19.54;33.70
79625;BME280;69101;45.534;10.218;2023-04-15T05:35:48;98785.22;;;19.51;33.29
79625;BME280;69101;45.534;10.218;2023-04-15T05:38:13;98783.38;;;19.51;33.32
79625;BME280;69101;45.534;10.218;2023-04-15T05:40:38;98792.09;;;19.52;33.69
79625;BME280;69101;45.534;10.218;2023-04-15T05:43:04;98785.00;;;19.52;33.71
79625;BME280;69101;45.534;10.218;2023-04-15T05:45:29;98792.91;;;19.52;33.32
79625;BME280;69101;45.534;10.218;2023-04-15T05:47:55;98784.19;;;19.52;33.45
79625;BME280;69101;45.534;10.218;2023-04-15T05:50:20;98789.25;;;19.53;33.48
79625;BME280;69101;45.534;10.218;2023-04-15T05:52:46;98792.69;;;19.54;33.00
79625;BME280;69101;45.534;10.218;2023-04-15T05:55:11;98790.84;;;19.54;33.90
79625;BME280;69101;45.534;10.218;2023-04-15T05:57:37;98791.88;;;19.53;33.57
79625;BME280;69101;45.534;10.218;2023-04-15T06:00:04;98794.72;;;19.52;33.63
79625;BME280;69101;45.534;10.218;2023-04-15T06:02:29;98792.91;;;19.52;33.72
79625;BME280;69101;45.534;10.218;2023-04-15T06:04:55;98795.34;;;19.54;33.52
79625;BME280;69101;45.534;10.218;2023-04-15T06:07:22;98802.22;;;19.55;33.71
79625;BME280;69101;45.534;10.218;2023-04-15T06:09:47;98800.63;;;19.54;33.50
79625;BME280;69101;45.534;10.218;2023-04-15T06:12:13;98798.97;;;19.53;33.36
79625;BME280;69101;45.534;10.218;2023-04-15T06:14:38;98798.56;;;19.56;33.67
79625;BME280;69101;45.534;10.218;2023-04-15T06:17:04;98796.94;;;19.55;33.97
79625;BME280;69101;45.534;10.218;2023-04-15T06:19:30;98807.28;;;19.56;34.03
79625;BME280;69101;45.534;10.218;2023-04-15T06:21:57;98807.28;;;19.56;33.57
79625;BME280;69101;45.534;10.218;2023-04-15T06:24:22;98807.47;;;19.55;33.78
79625;BME280;69101;45.534;10.218;2023-04-15T06:26:47;98814.38;;;19.56;33.41
79625;BME280;69101;45.534;10.218;2023-04-15T06:29:13;98809.13;;;19.56;33.64
79625;BME280;69101;45.534;10.218;2023-04-15T06:31:38;98816.59;;;19.59;33.28
79625;BME280;69101;45.534;10.218;2023-04-15T06:34:03;98813.56;;;19.55;33.76
79625;BME280;69101;45.534;10.218;2023-04-15T06:36:29;98814.97;;;19.58;33.91
79625;BME280;69101;45.534;10.218;2023-04-15T06:38:54;98816.59;;;19.59;33.66
79625;BME280;69101;45.534;10.218;2023-04-15T06:41:21;98819.00;;;19.60;33.74
79625;BME280;69101;45.534;10.218;2023-04-15T06:43:47;98813.75;;;19.60;33.90
79625;BME280;69101;45.534;10.218;2023-04-15T06:46:12;98814.31;;;19.62;34.32
79625;BME280;69101;45.534;10.218;2023-04-15T06:48:38;98819.59;;;19.62;34.19
79625;BME280;69101;45.534;10.218;2023-04-15T06:51:03;98819.41;;;19.64;34.04
79625;BME280;69101;45.534;10.218;2023-04-15T06:53:29;98822.03;;;19.64;34.30
79625;BME280;69101;45.534;10.218;2023-04-15T06:55:54;98817.78;;;19.63;34.15
79625;BME280;69101;45.534;10.218;2023-04-15T06:58:20;98824.09;;;19.62;34.22
79625;BME280;69101;45.534;10.218;2023-04-15T07:00:46;98814.56;;;19.61;34.48
79625;BME280;69101;45.534;10.218;2023-04-15T07:03:12;98823.63;;;19.65;34.06
79625;BME280;69101;45.534;10.218;2023-04-15T07:05:38;98818.38;;;19.65;34.63
79625;BME280;69101;45.534;10.218;2023-04-15T07:08:04;98818.38;;;19.65;34.27
79625;BME280;69101;45.534;10.218;2023-04-15T07:10:31;98818.38;;;19.65;34.61
79625;BME280;69101;45.534;10.218;2023-04-15T07:12:56;98815.28;;;19.68;34.30
79625;BME280;69101;45.534;10.218;2023-04-15T07:15:22;98815.28;;;19.68;34.30
79625;BME280;69101;45.534;10.218;2023-04-15T07:17:48;98815.09;;;19.69;34.51
79625;BME280;69101;45.534;10.218;2023-04-15T07:20:13;98815.88;;;19.70;34.27
79625;BME280;69101;45.534;10.218;2023-04-15T07:22:38;98819.34;;;19.70;33.92
79625;BME280;69101;45.534;10.218;2023-04-15T07:25:04;98822.78;;;19.71;34.30
79625;BME280;69101;45.534;10.218;2023-04-15T07:27:30;98813.63;;;19.73;34.09
79625;BME280;69101;45.534;10.218;2023-04-15T07:29:55;98813.63;;;19.73;34.04
79625;BME280;69101;45.534;10.218;2023-04-15T07:32:21;98814.44;;;19.74;34.10
79625;BME280;69101;45.534;10.218;2023-04-15T07:34:46;98811.38;;;19.77;34.16
79625;BME280;69101;45.534;10.218;2023-04-15T07:37:12;98819.88;;;19.79;33.78
79625;BME280;69101;45.534;10.218;2023-04-15T07:39:37;98806.88;;;19.77;33.48
79625;BME280;69101;45.534;10.218;2023-04-15T07:42:03;98808.75;;;19.77;33.92
79625;BME280;69101;45.534;10.218;2023-04-15T07:44:35;98799.78;;;19.78;33.92
79625;BME280;69101;45.534;10.218;2023-04-15T07:47:01;98797.97;;;19.78;33.66
79625;BME280;69101;45.534;10.218;2023-04-15T07:49:27;98808.28;;;19.80;34.19
79625;BME280;69101;45.534;10.218;2023-04-15T07:51:52;98798.78;;;19.79;33.87
79625;BME280;69101;45.534;10.218;2023-04-15T07:54:18;98807.50;;;19.79;33.88
79625;BME280;69101;45.534;10.218;2023-04-15T07:56:44;98810.94;;;19.80;34.08
79625;BME280;69101;45.534;10.218;2023-04-15T07:59:09;98817.59;;;19.82;34.53
79625;BME280;69101;45.534;10.218;2023-04-15T08:01:35;98817.41;;;19.84;34.17
79625;BME280;69101;45.534;10.218;2023-04-15T08:04:01;98818.00;;;19.86;34.26
79625;BME280;69101;45.534;10.218;2023-04-15T08:06:27;98818.81;;;19.86;34.57
79625;BME280;69101;45.534;10.218;2023-04-15T08:08:53;98824.66;;;19.88;34.48
79625;BME280;69101;45.534;10.218;2023-04-15T08:11:19;98821.81;;;19.90;34.29
79625;BME280;69101;45.534;10.218;2023-04-15T08:13:45;98823.84;;;19.88;34.08
79625;BME280;69101;45.534;10.218;2023-04-15T08:18:38;98816.75;;;19.88;34.32
79625;BME280;69101;45.534;10.218;2023-04-15T08:21:03;98819.19;;;19.90;34.72
79625;BME280;69101;45.534;10.218;2023-04-15T08:23:30;98815.50;;;19.91;34.40
79625;BME280;69101;45.534;10.218;2023-04-15T08:25:56;98813.28;;;19.88;34.43
79625;BME280;69101;45.534;10.218;2023-04-15T08:28:21;98815.50;;;19.91;34.76
79625;BME280;69101;45.534;10.218;2023-04-15T08:30:47;98809.66;;;19.89;34.69
79625;BME280;69101;45.534;10.218;2023-04-15T08:33:12;98817.13;;;19.92;34.35
79625;BME280;69101;45.534;10.218;2023-04-15T08:35:37;98809.00;;;19.93;34.84
79625;BME280;69101;45.534;10.218;2023-04-15T08:38:03;98810.81;;;19.93;34.82
79625;BME280;69101;45.534;10.218;2023-04-15T08:40:36;98809.81;;;19.94;34.62
79625;BME280;69101;45.534;10.218;2023-04-15T08:43:21;98811.44;;;19.95;34.96
79625;BME280;69101;45.534;10.218;2023-04-15T08:45:49;98815.66;;;19.96;34.71
79625;BME280;69101;45.534;10.218;2023-04-15T08:48:16;98815.66;;;19.96;34.68
79625;BME280;69101;45.534;10.218;2023-04-15T08:50:42;98809.38;;;19.97;34.64
79625;BME280;69101;45.534;10.218;2023-04-15T08:53:08;98814.66;;;19.97;35.09
79625;BME280;69101;45.534;10.218;2023-04-15T08:55:35;98811.19;;;19.96;34.95
79625;BME280;69101;45.534;10.218;2023-04-15T08:58:04;98810.38;;;19.96;34.78
79625;BME280;69101;45.534;10.218;2023-04-15T09:00:31;98810.78;;;19.99;34.80
79625;BME280;69101;45.534;10.218;2023-04-15T09:02:58;98804.69;;;19.99;34.95
79625;BME280;69101;45.534;10.218;2023-04-15T09:05:23;98803.66;;;20.00;34.96
79625;BME280;69101;45.534;10.218;2023-04-15T09:07:50;98804.44;;;20.00;34.78
79625;BME280;69101;45.534;10.218;2023-04-15T09:10:15;98801.81;;;20.00;34.97
79625;BME280;69101;45.534;10.218;2023-04-15T09:12:41;98799.16;;;20.00;34.96
79625;BME280;69101;45.534;10.218;2023-04-15T09:15:07;98803.66;;;20.00;34.60
79625;BME280;69101;45.534;10.218;2023-04-15T09:17:41;98804.25;;;20.02;35.23
79625;BME280;69101;45.534;10.218;2023-04-15T09:22:34;98800.56;;;20.03;35.02
79625;BME280;69101;45.534;10.218;2023-04-15T09:24:59;98802.41;;;20.03;34.83
79625;BME280;69101;45.534;10.218;2023-04-15T09:27:25;98799.97;;;20.01;34.64
79625;BME280;69101;45.534;10.218;2023-04-15T09:29:52;98799.16;;;20.00;34.74
79625;BME280;69101;45.534;10.218;2023-04-15T09:32:18;98798.97;;;20.02;35.12
79625;BME280;69101;45.534;10.218;2023-04-15T09:34:45;98800.13;;;20.06;35.01
79625;BME280;69101;45.534;10.218;2023-04-15T09:37:12;98795.91;;;20.05;35.19
79625;BME280;69101;45.534;10.218;2023-04-15T09:39:52;98807.25;;;20.06;35.03
79625;BME280;69101;45.534;10.218;2023-04-15T09:42:18;98800.13;;;20.06;35.07
79625;BME280;69101;45.534;10.218;2023-04-15T09:44:50;98799.31;;;20.06;35.19
79625;BME280;69101;45.534;10.218;2023-04-15T09:47:30;98795.44;;;20.08;35.02
79625;BME280;69101;45.534;10.218;2023-04-15T09:49:57;98796.25;;;20.09;35.09
79625;BME280;69101;45.534;10.218;2023-04-15T09:52:23;98790.78;;;20.10;35.04
79625;BME280;69101;45.534;10.218;2023-04-15T09:54:57;98789.38;;;20.08;35.09
79625;BME280;69101;45.534;10.218;2023-04-15T09:57:23;98784.09;;;20.08;34.94
79625;BME280;69101;45.534;10.218;2023-04-15T09:59:49;98781.22;;;20.09;34.67
79625;BME280;69101;45.534;10.218;2023-04-15T10:02:17;98783.66;;;20.11;34.88
79625;BME280;69101;45.534;10.218;2023-04-15T10:04:43;98778.38;;;20.11;35.06
79625;BME280;69101;45.534;10.218;2023-04-15T10:07:10;98777.13;;;20.13;35.01
79625;BME280;69101;45.534;10.218;2023-04-15T10:09:37;98772.66;;;20.14;35.09
79625;BME280;69101;45.534;10.218;2023-04-15T10:12:03;98779.56;;;20.15;35.19
79625;BME280;69101;45.534;10.218;2023-04-15T10:14:32;98780.94;;;20.17;35.27
79625;BME280;69101;45.534;10.218;2023-04-15T10:17:00;98782.34;;;20.20;34.89
79625;BME280;69101;45.534;10.218;2023-04-15T10:19:30;98766.13;;;20.16;35.29
79625;BME280;69101;45.534;10.218;2023-04-15T10:21:58;98777.28;;;20.18;35.30
79625;BME280;69101;45.534;10.218;2023-04-15T10:24:24;98778.31;;;20.17;35.10
79625;BME280;69101;45.534;10.218;2023-04-15T10:26:50;98770.97;;;20.19;35.31
79625;BME280;69101;45.534;10.218;2023-04-15T10:29:17;98767.31;;;20.20;35.31
79625;BME280;69101;45.534;10.218;2023-04-15T10:31:42;98756.16;;;20.18;35.26
79625;BME280;69101;45.534;10.218;2023-04-15T10:34:09;98766.72;;;20.18;34.91
79625;BME280;69101;45.534;10.218;2023-04-15T10:36:35;98762.47;;;20.17;34.96
79625;BME280;69101;45.534;10.218;2023-04-15T10:39:00;98758.00;;;20.18;34.67
79625;BME280;69101;45.534;10.218;2023-04-15T10:41:27;98757.75;;;20.19;34.93
79625;BME280;69101;45.534;10.218;2023-04-15T10:44:01;98760.41;;;20.19;34.74
79625;BME280;69101;45.534;10.218;2023-04-15T10:46:41;98753.53;;;20.18;33.82
79625;BME280;69101;45.534;10.218;2023-04-15T10:51:37;98755.13;;;20.19;34.22
79625;BME280;69101;45.534;10.218;2023-04-15T10:54:08;98756.16;;;20.18;34.41
79625;BME280;69101;45.534;10.218;2023-04-15T10:56:34;98752.72;;;20.18;34.56
79625;BME280;69101;45.534;10.218;2023-04-15T10:59:02;98741.72;;;20.21;34.83
79625;BME280;69101;45.534;10.218;2023-04-15T11:07:51;98739.66;;;20.23;34.91
79625;BME280;69101;45.534;10.218;2023-04-15T11:12:56;98732.13;;;20.26;34.82
79625;BME280;69101;45.534;10.218;2023-04-15T11:15:34;98736.81;;;20.24;34.83
79625;BME280;69101;45.534;10.218;2023-04-15T11:20:35;98726.25;;;20.24;34.90
79625;BME280;69101;45.534;10.218;2023-04-15T11:23:02;98725.00;;;20.27;34.61
79625;BME280;69101;45.534;10.218;2023-04-15T11:25:32;98722.94;;;20.29;34.75
79625;BME280;69101;45.534;10.218;2023-04-15T11:28:00;98721.34;;;20.28;34.88
79625;BME280;69101;45.534;10.218;2023-04-15T11:30:29;98725.00;;;20.27;34.34
79625;BME280;69101;45.534;10.218;2023-04-15T11:32:59;98716.50;;;20.25;34.61
79625;BME280;69101;45.534;10.218;2023-04-15T11:35:26;98724.66;;;20.23;33.87
79625;BME280;69101;45.534;10.218;2023-04-15T11:37:52;98717.91;;;20.27;34.51
79625;BME280;69101;45.534;10.218;2023-04-15T11:40:25;98717.47;;;20.30;34.63
79625;BME280;69101;45.534;10.218;2023-04-15T11:43:08;98714.81;;;20.30;34.52
79625;BME280;69101;45.534;10.218;2023-04-15T11:45:35;98711.94;;;20.32;34.67
79625;BME280;69101;45.534;10.218;2023-04-15T11:48:08;98712.75;;;20.32;34.58
79625;BME280;69101;45.534;10.218;2023-04-15T11:50:34;98721.94;;;20.30;34.37
79625;BME280;69101;45.534;10.218;2023-04-15T11:53:04;98717.66;;;20.29;34.38
79625;BME280;69101;45.534;10.218;2023-04-15T11:55:30;98717.03;;;20.33;34.77
79625;BME280;69101;45.534;10.218;2023-04-15T11:58:16;98715.53;;;20.37;34.57
79625;BME280;69101;45.534;10.218;2023-04-15T12:00:50;98716.78;;;20.35;34.52
79625;BME280;69101;45.534;10.218;2023-04-15T12:06:12;98717.59;;;20.35;34.77
79625;BME280;69101;45.534;10.218;2023-04-15T12:09:19;98716.78;;;20.35;33.87
79625;BME280;69101;45.534;10.218;2023-04-15T12:14:20;98722.44;;;20.38;34.37
79625;BME280;69101;45.534;10.218;2023-04-15T12:16:50;98729.56;;;20.38;34.27
79625;BME280;69101;45.534;10.218;2023-04-15T12:19:37;98724.84;;;20.40;34.39
79625;BME280;69101;45.534;10.218;2023-04-15T12:22:14;98726.81;;;20.44;34.46
79625;BME280;69101;45.534;10.218;2023-04-15T12:24:41;98726.03;;;20.44;34.34
79625;BME280;69101;45.534;10.218;2023-04-15T12:27:10;98722.34;;;20.45;34.36
79625;BME280;69101;45.534;10.218;2023-04-15T12:29:37;98718.31;;;20.42;34.51
79625;BME280;69101;45.534;10.218;2023-04-15T12:32:07;98723.41;;;20.44;34.34
79625;BME280;69101;45.534;10.218;2023-04-15T12:34:40;98724.19;;;20.44;34.30
79625;BME280;69101;45.534;10.218;2023-04-15T12:37:08;98726.38;;;20.47;34.37
79625;BME280;69101;45.534;10.218;2023-04-15T12:39:36;98723.53;;;20.49;34.62
79625;BME280;69101;45.534;10.218;2023-04-15T12:42:03;98722.16;;;20.46;33.73
79625;BME280;69101;45.534;10.218;2023-04-15T12:44:28;98719.50;;;20.46;34.22
79625;BME280;69101;45.534;10.218;2023-04-15T12:46:54;98720.66;;;20.50;34.14
79625;BME280;69101;45.534;10.218;2023-04-15T12:49:21;98717.78;;;20.52;34.27
79625;BME280;69101;45.534;10.218;2023-04-15T12:51:52;98723.66;;;20.54;34.41
79625;BME280;69101;45.534;10.218;2023-04-15T12:54:19;98712.88;;;20.55;34.07
79625;BME280;69101;45.534;10.218;2023-04-15T12:56:45;98716.91;;;20.58;34.15
79625;BME280;69101;45.534;10.218;2023-04-15T12:59:12;98716.09;;;20.57;34.02
79625;BME280;69101;45.534;10.218;2023-04-15T13:01:38;98723.56;;;20.60;34.10
79625;BME280;69101;45.534;10.218;2023-04-15T13:04:04;98727.47;;;20.58;34.29
79625;BME280;69101;45.534;10.218;2023-04-15T13:06:29;98729.09;;;20.59;34.43
79625;BME280;69101;45.534;10.218;2023-04-15T13:08:58;98731.72;;;20.59;34.54
79625;BME280;69101;45.534;10.218;2023-04-15T13:11:24;98725.63;;;20.58;34.46